createdAt,value
2023-04-01T00:00:42.094Z,432.6429
2023-04-01T00:01:50.138Z,422.2143
2023-04-01T00:02:58.426Z,403.6429
2023-04-01T00:04:06.211Z,438.7143
2023-04-01T00:05:14.331Z,434.6429
2023-04-01T00:06:22.351Z,436.6429
2023-04-01T00:07:31.352Z,450.5000
2023-04-01T00:08:38.548Z,437.2143
2023-04-01T00:09:46.712Z,454.2857
2023-04-01T00:10:54.812Z,452.2857
2023-04-01T00:12:02.836Z,435.0000
2023-04-01T00:13:10.833Z,446.2143
2023-04-01T00:14:18.867Z,448.4286
2023-04-01T00:15:27.048Z,460.7857
2023-04-01T00:16:35.147Z,433.9286
2023-04-01T00:17:43.245Z,479.1429
2023-04-01T00:18:51.222Z,460.5714
2023-04-01T00:19:59.163Z,449.1429
2023-04-01T00:21:07.225Z,465.5714
2023-04-01T00:22:15.346Z,474.9286
2023-04-01T00:23:23.511Z,426.5714
2023-04-01T00:24:31.515Z,467.6429
2023-04-01T00:25:39.673Z,476.9286
2023-04-01T00:26:47.702Z,471.0000
2023-04-01T00:27:55.806Z,453.0714
2023-04-01T00:29:03.818Z,454.5000
2023-04-01T00:30:11.876Z,482.4286
2023-04-01T00:31:19.965Z,454.6429
2023-04-01T00:32:28.121Z,477.6429
2023-04-01T00:33:36.018Z,467.1429
2023-04-01T00:34:44.182Z,451.4286
2023-04-01T00:35:52.136Z,419.4286
2023-04-01T00:37:00.209Z,392.0714
2023-04-01T00:38:08.407Z,391.7143
2023-04-01T00:39:16.449Z,399.2857
2023-04-01T00:40:24.520Z,380.5714
2023-04-01T00:41:32.618Z,411.0714
2023-04-01T00:42:40.620Z,404.2143
2023-04-01T00:43:48.799Z,411.5714
2023-04-01T00:44:56.820Z,452.2857
2023-04-01T00:46:04.854Z,411.7143
2023-04-01T00:47:12.953Z,384.6429
2023-04-01T00:48:20.922Z,418.6429
2023-04-01T00:49:28.984Z,433.7143
2023-04-01T00:50:37.076Z,404.7143
2023-04-01T00:51:45.079Z,383.1429
2023-04-01T00:52:53.266Z,389.2857
2023-04-01T00:54:01.399Z,409.0000
2023-04-01T00:55:09.458Z,392.3571
2023-04-01T00:56:17.611Z,402.5714
2023-04-01T00:57:25.586Z,413.0714
2023-04-01T00:58:33.601Z,412.7143
2023-04-01T00:59:41.768Z,401.5000
2023-04-01T01:00:49.809Z,433.2143
2023-04-01T01:01:57.924Z,435.1429
2023-04-01T01:03:05.824Z,437.1429
2023-04-01T01:04:13.870Z,389.7143
2023-04-01T01:05:22.031Z,421.2857
2023-04-01T01:06:30.065Z,433.2143
2023-04-01T01:07:38.208Z,385.7143
2023-04-01T01:08:46.261Z,403.5714
2023-04-01T01:09:54.317Z,380.7143
2023-04-01T01:11:02.408Z,385.5714
2023-04-01T01:12:10.519Z,369.1429
2023-04-01T01:13:18.602Z,344.8571
2023-04-01T01:14:26.625Z,330.6429
2023-04-01T01:15:34.693Z,337.1429
2023-04-01T01:16:42.796Z,342.9286
2023-04-01T01:17:50.960Z,381.8571
2023-04-01T01:18:58.945Z,367.5000
2023-04-01T01:20:12.762Z,346.1429
2023-04-01T01:21:19.787Z,358.0000
2023-04-01T01:22:27.890Z,338.3571
2023-04-01T01:23:36.077Z,297.5000
2023-04-01T01:24:44.205Z,318.8571
2023-04-01T01:25:52.301Z,324.6429
2023-04-01T01:27:00.300Z,321.7857
2023-04-01T01:28:08.440Z,339.6429
2023-04-01T01:29:16.486Z,332.2143
2023-04-01T01:30:24.539Z,337.6429
2023-04-01T01:31:32.582Z,370.1429
2023-04-01T01:32:40.693Z,364.8571
2023-04-01T01:33:48.609Z,377.7857
2023-04-01T01:34:56.770Z,357.4286
2023-04-01T01:36:04.853Z,401.7143
2023-04-01T01:37:12.898Z,374.0714
2023-04-01T01:38:21.010Z,336.0000
2023-04-01T01:39:29.099Z,349.0714
2023-04-01T01:40:37.235Z,340.7857
2023-04-01T01:41:45.376Z,361.6429
2023-04-01T01:42:53.330Z,372.8571
2023-04-01T01:44:01.409Z,352.6429
2023-04-01T01:45:09.481Z,357.9286
2023-04-01T01:46:17.634Z,319.0000
2023-04-01T01:47:25.717Z,337.5000
2023-04-01T01:48:33.748Z,359.3571
2023-04-01T01:49:41.743Z,368.9286
2023-04-01T01:50:49.726Z,339.9286
2023-04-01T01:51:57.874Z,318.1429
2023-04-01T01:53:05.911Z,350.3571
2023-04-01T01:54:13.944Z,367.5000
2023-04-01T01:55:22.149Z,361.2143
2023-04-01T01:56:30.189Z,337.2143
2023-04-01T01:57:38.314Z,334.6429
2023-04-01T01:58:46.396Z,326.0000
2023-04-01T01:59:54.412Z,338.7857
2023-04-01T02:01:02.461Z,370.0000
2023-04-01T02:02:10.658Z,399.1429
2023-04-01T02:03:18.673Z,390.5000
2023-04-01T02:04:26.767Z,376.5714
2023-04-01T02:05:34.983Z,371.6429
2023-04-01T02:06:42.789Z,417.5714
2023-04-01T02:07:50.804Z,382.8571
2023-04-01T02:08:58.931Z,400.6429
2023-04-01T02:10:07.118Z,386.2143
2023-04-01T02:11:15.066Z,373.4286
2023-04-01T02:12:23.194Z,399.2143
2023-04-01T02:13:31.255Z,358.6429
2023-04-01T02:14:39.316Z,340.9286
2023-04-01T02:15:47.511Z,356.2857
2023-04-01T02:16:55.493Z,308.7143
2023-04-01T02:18:03.607Z,316.0000
2023-04-01T02:19:11.609Z,306.0714
2023-04-01T02:20:19.651Z,303.0000
2023-04-01T02:21:27.804Z,322.2857
2023-04-01T02:22:35.761Z,335.2143
2023-04-01T02:23:43.909Z,334.2857
2023-04-01T02:24:51.963Z,366.3571
2023-04-01T02:25:59.956Z,375.7143
2023-04-01T02:27:08.077Z,382.2857
2023-04-01T02:28:16.145Z,374.5000
2023-04-01T02:29:24.184Z,373.5714
2023-04-01T02:30:32.411Z,379.0000
2023-04-01T02:31:40.402Z,346.0000
2023-04-01T02:32:48.517Z,372.3571
2023-04-01T02:33:56.655Z,349.8571
2023-04-01T02:35:04.696Z,338.0000
2023-04-01T02:36:12.770Z,358.2857
2023-04-01T02:37:20.860Z,356.0000
2023-04-01T02:38:28.994Z,346.7857
2023-04-01T02:39:37.033Z,338.5000
2023-04-01T02:40:45.076Z,325.7857
2023-04-01T02:41:53.127Z,335.2857
2023-04-01T02:43:01.074Z,349.7857
2023-04-01T02:44:09.200Z,353.9286
2023-04-01T02:45:17.296Z,333.0000
2023-04-01T02:46:25.341Z,361.8571
2023-04-01T02:47:33.633Z,374.0714
2023-04-01T02:48:41.534Z,372.5000
2023-04-01T02:49:49.655Z,343.0714
2023-04-01T02:50:57.717Z,321.5000
2023-04-01T02:52:05.753Z,344.5000
2023-04-01T02:53:13.943Z,314.5714
2023-04-01T02:54:21.881Z,344.5000
2023-04-01T02:55:30.012Z,350.1429
2023-04-01T02:56:38.113Z,362.7143
2023-04-01T02:57:46.013Z,367.6429
2023-04-01T02:58:54.049Z,387.7857
2023-04-01T03:00:02.165Z,381.3571
2023-04-01T03:01:10.309Z,357.4286
2023-04-01T03:02:18.449Z,348.8571
2023-04-01T03:03:26.545Z,335.0714
2023-04-01T03:04:34.554Z,349.2857
2023-04-01T03:05:42.615Z,348.1429
2023-04-01T03:06:50.760Z,317.5000
2023-04-01T03:07:58.801Z,323.8571
2023-04-01T03:09:06.837Z,310.9286
2023-04-01T03:10:14.914Z,323.5000
2023-04-01T03:11:23.044Z,304.3571
2023-04-01T03:12:30.920Z,302.9286
2023-04-01T03:13:39.071Z,306.3571
2023-04-01T03:14:47.089Z,313.6429
2023-04-01T03:15:55.206Z,322.6429
2023-04-01T03:17:03.303Z,302.2143
2023-04-01T03:18:11.431Z,299.0714
2023-04-01T03:19:19.477Z,295.6429
2023-04-01T03:20:27.562Z,287.7857
2023-04-01T03:21:35.561Z,279.1429
2023-04-01T03:22:43.671Z,295.5000
2023-04-01T03:23:51.806Z,273.3571
2023-04-01T03:24:59.842Z,273.5714
2023-04-01T03:26:07.854Z,302.2143
2023-04-01T03:27:15.880Z,271.6429
2023-04-01T03:28:23.929Z,305.9286
2023-04-01T03:29:32.029Z,295.5000
2023-04-01T03:30:40.142Z,268.4286
2023-04-01T03:31:48.286Z,263.8571
2023-04-01T03:32:56.385Z,281.0714
2023-04-01T03:34:04.379Z,269.0000
2023-04-01T03:35:12.473Z,279.2143
2023-04-01T03:36:20.556Z,268.0000
2023-04-01T03:37:28.596Z,288.2857
2023-04-01T03:38:36.627Z,297.8571
2023-04-01T03:39:44.812Z,294.7857
2023-04-01T03:40:52.872Z,312.2857
2023-04-01T03:42:00.843Z,343.1429
2023-04-01T03:43:08.866Z,305.4286
2023-04-01T03:44:16.925Z,299.3571
2023-04-01T03:45:25.022Z,284.7857
2023-04-01T03:46:33.241Z,289.7143
2023-04-01T03:47:41.338Z,298.1429
2023-04-01T03:48:49.275Z,276.9286
2023-04-01T03:49:57.350Z,297.7143
2023-04-01T03:51:05.439Z,309.7143
2023-04-01T03:52:13.617Z,306.7143
2023-04-01T03:53:21.602Z,320.9286
2023-04-01T03:54:29.671Z,293.6429
2023-04-01T03:55:37.755Z,257.2857
2023-04-01T03:56:45.654Z,254.4286
2023-04-01T03:57:53.784Z,287.2857
2023-04-01T03:59:01.835Z,304.5000
2023-04-01T04:00:09.864Z,274.1429
2023-04-01T04:01:18.041Z,302.2857
2023-04-01T04:02:26.210Z,312.7143
2023-04-01T04:03:34.292Z,305.1429
2023-04-01T04:04:42.445Z,401.1429
2023-04-01T04:05:50.302Z,380.5714
2023-04-01T04:06:58.364Z,357.0000
2023-04-01T04:08:06.418Z,345.2857
2023-04-01T04:09:14.563Z,363.5000
2023-04-01T04:10:22.632Z,356.6429
2023-04-01T04:11:30.618Z,336.4286
2023-04-01T04:12:38.621Z,324.2143
2023-04-01T04:13:46.696Z,305.7143
2023-04-01T04:14:54.767Z,303.7143
2023-04-01T04:16:03.064Z,291.8571
2023-04-01T04:17:10.998Z,299.5714
2023-04-01T04:18:19.089Z,302.5000
2023-04-01T04:19:27.120Z,281.7857
2023-04-01T04:20:35.283Z,306.2857
2023-04-01T04:21:43.272Z,343.0000
2023-04-01T04:22:51.349Z,303.7857
2023-04-01T04:23:59.376Z,305.0714
2023-04-01T04:25:07.463Z,298.1429
2023-04-01T04:26:15.468Z,298.9286
2023-04-01T04:27:23.539Z,315.8571
2023-04-01T04:28:31.569Z,323.7143
2023-04-01T04:29:39.663Z,306.6429
2023-04-01T04:30:47.773Z,299.0714
2023-04-01T04:31:55.964Z,311.5714
2023-04-01T04:33:04.013Z,320.2143
2023-04-01T04:34:12.002Z,355.3571
2023-04-01T04:35:20.119Z,369.3571
2023-04-01T04:36:28.171Z,318.5000
2023-04-01T04:37:36.245Z,312.7143
2023-04-01T04:38:44.311Z,278.2143
2023-04-01T04:39:52.321Z,317.1429
2023-04-01T04:41:00.308Z,317.4286
2023-04-01T04:42:08.350Z,262.3571
2023-04-01T04:43:16.460Z,276.3571
2023-04-01T04:44:24.513Z,269.2143
2023-04-01T04:45:32.811Z,272.1429
2023-04-01T04:46:40.713Z,266.5000
2023-04-01T04:47:48.864Z,277.0000
2023-04-01T04:48:56.868Z,296.5000
2023-04-01T04:50:04.991Z,262.4286
2023-04-01T04:51:12.989Z,260.5714
2023-04-01T04:52:21.126Z,241.4286
2023-04-01T04:53:29.081Z,232.0714
2023-04-01T04:54:37.229Z,250.6429
2023-04-01T04:55:45.156Z,218.3571
2023-04-01T04:56:53.377Z,228.8571
2023-04-01T04:58:01.229Z,220.0000
2023-04-01T04:59:09.353Z,212.8571
2023-04-01T05:00:17.514Z,196.6429
2023-04-01T05:01:25.620Z,219.5000
2023-04-01T05:02:33.734Z,214.2857
2023-04-01T05:03:41.754Z,213.2857
2023-04-01T05:04:49.754Z,210.2857
2023-04-01T05:05:57.887Z,213.7143
2023-04-01T05:07:05.981Z,182.5714
2023-04-01T05:08:13.997Z,176.3571
2023-04-01T05:09:22.030Z,182.9286
2023-04-01T05:10:30.016Z,176.2143
2023-04-01T05:11:38.118Z,174.9286
2023-04-01T05:12:46.189Z,196.2857
2023-04-01T05:13:54.204Z,184.6429
2023-04-01T05:15:02.405Z,173.3571
2023-04-01T05:16:10.451Z,186.9286
2023-04-01T05:17:18.551Z,164.5000
2023-04-01T05:18:26.574Z,197.5714
2023-04-01T05:19:34.648Z,185.5714
2023-04-01T05:20:42.696Z,185.0000
2023-04-01T05:21:50.810Z,178.7857
2023-04-01T05:22:58.952Z,183.6429
2023-04-01T05:24:06.992Z,170.7857
2023-04-01T05:25:14.910Z,143.6429
2023-04-01T05:26:23.002Z,97.7143
2023-04-01T05:27:31.043Z,23.4286
2023-04-01T05:28:39.184Z,0.0000
2023-04-01T05:29:47.324Z,0.0000
2023-04-01T05:30:55.410Z,12.2143
2023-04-01T05:32:03.429Z,65.2857
2023-04-01T05:33:11.571Z,99.2857
2023-04-01T05:34:19.589Z,120.2857
2023-04-01T05:35:27.742Z,132.0714
2023-04-01T05:36:35.719Z,130.7143
2023-04-01T05:37:43.800Z,88.2857
2023-04-01T05:38:51.831Z,58.0000
2023-04-01T05:39:59.881Z,6.5000
2023-04-01T05:41:07.932Z,0.0000
2023-04-01T05:42:15.962Z,0.0000
2023-04-01T05:43:24.038Z,0.0000
2023-04-01T05:44:32.234Z,0.0000
2023-04-01T05:45:40.363Z,0.0000
2023-04-01T05:46:48.430Z,0.0000
2023-04-01T05:47:56.424Z,0.0000
2023-04-01T05:49:04.524Z,0.0000
2023-04-01T05:50:12.598Z,0.0000
2023-04-01T05:51:20.749Z,0.0000
2023-04-01T05:52:28.763Z,0.0000
2023-04-01T05:53:36.786Z,0.0000
2023-04-01T05:54:44.752Z,0.0000
2023-04-01T05:55:52.849Z,0.0000
2023-04-01T05:57:00.974Z,0.0000
2023-04-01T05:58:09.026Z,0.0000
2023-04-01T05:59:17.151Z,0.0000
2023-04-01T06:00:25.207Z,0.0000
2023-04-01T06:01:33.283Z,0.0000
2023-04-01T06:02:41.463Z,0.0000
2023-04-01T06:03:49.787Z,0.0000
2023-04-01T06:04:57.642Z,0.0000
2023-04-01T06:06:05.588Z,0.0000
2023-04-01T06:07:13.650Z,0.0000
2023-04-01T06:08:21.779Z,0.0000
2023-04-01T06:09:29.684Z,0.0000
2023-04-01T06:10:37.785Z,0.0000
2023-04-01T06:11:45.834Z,0.0000
2023-04-01T06:12:53.863Z,0.0000
2023-04-01T06:14:02.118Z,0.0000
2023-04-01T06:15:10.157Z,0.0000
2023-04-01T06:16:18.365Z,0.0000
2023-04-01T06:17:26.287Z,0.0000
2023-04-01T06:18:34.361Z,0.0000
2023-04-01T06:19:42.467Z,0.0000
2023-04-01T06:20:50.505Z,0.0000
2023-04-01T06:21:58.560Z,0.0000
2023-04-01T06:23:06.669Z,0.0000
2023-04-01T06:24:14.585Z,0.0000
2023-04-01T06:25:22.709Z,0.0000
2023-04-01T06:26:30.798Z,0.0000
2023-04-01T06:27:38.828Z,0.0000
2023-04-01T06:28:46.996Z,0.0000
2023-04-01T06:29:55.047Z,0.0000
2023-04-01T06:31:03.169Z,0.0000
2023-04-01T06:32:11.510Z,0.0000
2023-04-01T06:33:19.315Z,0.0000
2023-04-01T06:34:27.314Z,0.0000
2023-04-01T06:35:35.629Z,0.0000
2023-04-01T06:36:43.522Z,0.0000
2023-04-01T06:37:51.575Z,0.0000
2023-04-01T06:38:59.531Z,0.0000
2023-04-01T06:40:07.557Z,0.0000
2023-04-01T06:41:15.762Z,0.0000
2023-04-01T06:42:23.722Z,0.0000
2023-04-01T06:43:31.987Z,0.0000
2023-04-01T06:44:40.146Z,0.0000
2023-04-01T06:45:48.199Z,0.0000
2023-04-01T06:46:56.104Z,0.0000
2023-04-01T06:48:04.260Z,0.0000
2023-04-01T06:49:12.314Z,0.0000
2023-04-01T06:50:20.343Z,0.0000
2023-04-01T06:51:28.417Z,0.0000
2023-04-01T06:52:36.551Z,0.0000
2023-04-01T06:53:44.565Z,0.0000
2023-04-01T06:54:52.675Z,0.0000
2023-04-01T06:56:00.622Z,0.0000
2023-04-01T06:57:08.692Z,0.0000
2023-04-01T06:58:16.670Z,0.0000
2023-04-01T06:59:24.848Z,0.0000
2023-04-01T07:00:33.038Z,0.0000
2023-04-01T07:01:41.156Z,0.0000
2023-04-01T07:02:49.172Z,0.0000
2023-04-01T07:03:57.200Z,0.0000
2023-04-01T07:05:05.267Z,0.0000
2023-04-01T07:06:13.333Z,0.0000
2023-04-01T07:07:21.313Z,0.0000
2023-04-01T07:08:29.432Z,0.0000
2023-04-01T07:09:37.478Z,0.0000
2023-04-01T07:10:45.493Z,0.0000
2023-04-01T07:11:53.530Z,0.0000
2023-04-01T07:13:01.592Z,0.0000
2023-04-01T07:14:09.637Z,0.0000
2023-04-01T07:15:17.924Z,0.0000
2023-04-01T07:16:26.057Z,0.0000
2023-04-01T07:17:34.078Z,0.0000
2023-04-01T07:18:41.990Z,0.0000
2023-04-01T07:19:50.156Z,0.0000
2023-04-01T07:20:58.155Z,0.0000
2023-04-01T07:22:06.301Z,0.0000
2023-04-01T07:23:14.553Z,0.0000
2023-04-01T07:24:22.284Z,0.0000
2023-04-01T07:25:30.364Z,0.0000
2023-04-01T07:26:38.415Z,0.0000
2023-04-01T07:27:46.507Z,0.0000
2023-04-01T07:28:54.709Z,0.0000
2023-04-01T07:30:02.748Z,0.0000
2023-04-01T07:31:10.780Z,0.0000
2023-04-01T07:32:18.826Z,0.0000
2023-04-01T07:33:26.994Z,0.0000
2023-04-01T07:34:34.999Z,0.0000
2023-04-01T07:35:43.110Z,0.0000
2023-04-01T07:36:51.083Z,0.0000
2023-04-01T07:37:59.162Z,0.0000
2023-04-01T07:39:07.154Z,0.0000
2023-04-01T07:40:15.270Z,0.0000
2023-04-01T07:41:23.261Z,0.0000
2023-04-01T07:42:31.341Z,0.0000
2023-04-01T07:43:39.508Z,0.0000
2023-04-01T07:44:47.602Z,0.0000
2023-04-01T07:45:55.678Z,0.0000
2023-04-01T07:47:03.759Z,0.0000
2023-04-01T07:48:11.736Z,0.0000
2023-04-01T07:49:19.816Z,0.0000
2023-04-01T07:50:27.934Z,0.0000
2023-04-01T07:51:36.053Z,0.0000
2023-04-01T07:52:43.992Z,0.0000
2023-04-01T07:53:51.981Z,0.0000
2023-04-01T07:55:00.052Z,0.0000
2023-04-01T07:56:08.540Z,0.0000
2023-04-01T07:57:16.267Z,0.0000
2023-04-01T07:58:24.372Z,0.0000
2023-04-01T07:59:32.372Z,0.0000
2023-04-01T08:00:40.447Z,0.0000
2023-04-01T08:01:48.663Z,0.0000
2023-04-01T08:02:56.720Z,0.0000
2023-04-01T08:04:04.747Z,0.0000
2023-04-01T08:05:12.728Z,0.0000
2023-04-01T08:06:20.920Z,0.0000
2023-04-01T08:07:28.906Z,0.0000
2023-04-01T08:08:36.906Z,0.0000
2023-04-01T08:09:44.884Z,0.0000
2023-04-01T08:10:52.975Z,0.0000
2023-04-01T08:12:01.020Z,0.0000
2023-04-01T08:13:09.136Z,0.0000
2023-04-01T08:14:17.276Z,0.0000
2023-04-01T08:15:25.298Z,0.0000
2023-04-01T08:16:33.440Z,0.0000
2023-04-01T08:17:41.511Z,0.0000
2023-04-01T08:18:49.585Z,0.0000
2023-04-01T08:19:57.648Z,0.0000
2023-04-01T08:21:05.623Z,0.0000
2023-04-01T08:22:13.675Z,0.0000
2023-04-01T08:23:21.767Z,0.0000
2023-04-01T08:24:37.133Z,0.0000
2023-04-01T08:25:42.744Z,0.0000
2023-04-01T08:26:50.749Z,0.0000
2023-04-01T08:27:58.840Z,0.0000
2023-04-01T08:29:06.875Z,0.0000
2023-04-01T08:30:15.070Z,0.0000
2023-04-01T08:31:23.209Z,0.0000
2023-04-01T08:32:31.197Z,0.0000
2023-04-01T08:33:39.229Z,0.0000
2023-04-01T08:34:47.332Z,0.0000
2023-04-01T08:35:55.461Z,0.0000
2023-04-01T08:37:03.521Z,0.0000
2023-04-01T08:38:11.552Z,0.0000
2023-04-01T08:39:19.676Z,0.0000
2023-04-01T08:40:27.566Z,0.0000
2023-04-01T08:41:35.669Z,0.0000
2023-04-01T08:42:43.697Z,0.0000
2023-04-01T08:43:51.808Z,0.0000
2023-04-01T08:44:59.958Z,0.0000
2023-04-01T08:46:08.043Z,0.0000
2023-04-01T08:47:16.149Z,0.0000
2023-04-01T08:48:24.211Z,0.0000
2023-04-01T08:49:32.243Z,0.0000
2023-04-01T08:50:40.355Z,0.0000
2023-04-01T08:51:48.330Z,0.0000
2023-04-01T08:52:56.465Z,0.0000
2023-04-01T08:54:04.563Z,0.0000
2023-04-01T08:55:12.587Z,0.0000
2023-04-01T08:56:20.528Z,0.0000
2023-04-01T08:57:28.734Z,0.0000
2023-04-01T08:58:36.706Z,0.0000
2023-04-01T08:59:44.761Z,0.0000
2023-04-01T09:00:52.879Z,0.0000
2023-04-01T09:02:01.009Z,0.0000
2023-04-01T09:03:09.171Z,0.0000
2023-04-01T09:04:17.260Z,0.0000
2023-04-01T09:05:25.255Z,0.0000
2023-04-01T09:06:33.293Z,0.0000
2023-04-01T09:07:41.307Z,0.0000
2023-04-01T09:08:49.375Z,0.0000
2023-04-01T09:09:57.506Z,0.0000
2023-04-01T09:11:05.434Z,0.0000
2023-04-01T09:12:13.560Z,0.0000
2023-04-01T09:13:21.585Z,0.0000
2023-04-01T09:14:29.694Z,0.0000
2023-04-01T09:15:37.904Z,0.0000
2023-04-01T09:16:45.877Z,0.0000
2023-04-01T09:17:53.929Z,0.0000
2023-04-01T09:19:02.005Z,0.0000
2023-04-01T09:20:10.056Z,0.0000
2023-04-01T09:21:18.210Z,0.0000
2023-04-01T09:22:26.233Z,0.0000
2023-04-01T09:23:34.356Z,0.0000
2023-04-01T09:24:42.402Z,0.0000
2023-04-01T09:25:50.346Z,0.0000
2023-04-01T09:26:59.693Z,0.0000
2023-04-01T09:28:06.497Z,0.0000
2023-04-01T09:29:14.525Z,0.0000
2023-04-01T09:30:22.695Z,0.0000
2023-04-01T09:31:30.767Z,0.0000
2023-04-01T09:32:38.928Z,0.0000
2023-04-01T09:33:46.916Z,0.0000
2023-04-01T09:34:55.044Z,0.0000
2023-04-01T09:36:03.113Z,0.0000
2023-04-01T09:37:11.094Z,0.0000
2023-04-01T09:38:19.229Z,0.0000
2023-04-01T09:39:27.271Z,0.0000
2023-04-01T09:40:35.195Z,0.0000
2023-04-01T09:41:43.292Z,0.0000
2023-04-01T09:42:51.381Z,0.0000
2023-04-01T09:43:59.473Z,0.0000
2023-04-01T09:45:07.655Z,0.0000
2023-04-01T09:46:15.655Z,0.0000
2023-04-01T09:47:23.724Z,0.0000
2023-04-01T09:48:31.816Z,0.0000
2023-04-01T09:49:39.876Z,0.0000
2023-04-01T09:50:47.966Z,0.0000
2023-04-01T09:51:55.962Z,0.0000
2023-04-01T09:53:04.037Z,0.0000
2023-04-01T09:54:12.095Z,0.0000
2023-04-01T09:55:20.120Z,0.0000
2023-04-01T09:56:28.197Z,0.0000
2023-04-01T09:57:36.242Z,0.0000
2023-04-01T09:58:44.413Z,0.0000
2023-04-01T09:59:52.431Z,0.0000
2023-04-01T10:01:00.563Z,0.0000
2023-04-01T10:02:08.651Z,0.0000
2023-04-01T10:03:16.639Z,0.0000
2023-04-01T10:04:24.748Z,0.0000
2023-04-01T10:05:32.943Z,0.0000
2023-04-01T10:06:40.941Z,0.0000
2023-04-01T10:07:48.976Z,0.0000
2023-04-01T10:08:56.996Z,0.0000
2023-04-01T10:10:04.956Z,0.0000
2023-04-01T10:11:13.017Z,0.0000
2023-04-01T10:12:21.111Z,0.0000
2023-04-01T10:13:29.215Z,0.0000
2023-04-01T10:14:37.354Z,0.0000
2023-04-01T10:15:45.408Z,0.0000
2023-04-01T10:16:54.399Z,0.0000
2023-04-01T10:18:01.623Z,0.0000
2023-04-01T10:19:09.628Z,0.0000
2023-04-01T10:20:17.735Z,0.0000
2023-04-01T10:21:25.755Z,0.0000
2023-04-01T10:22:33.819Z,0.0000
2023-04-01T10:23:41.905Z,0.0000
2023-04-01T10:24:49.887Z,0.0000
2023-04-01T10:25:57.932Z,0.0000
2023-04-01T10:27:05.968Z,0.0000
2023-04-01T10:28:14.088Z,0.0000
2023-04-01T10:29:22.306Z,0.0000
2023-04-01T10:30:30.364Z,0.0000
2023-04-01T10:31:38.419Z,0.0000
2023-04-01T10:32:46.442Z,0.0000
2023-04-01T10:33:54.487Z,0.0000
2023-04-01T10:35:02.532Z,0.0000
2023-04-01T10:36:10.766Z,0.0000
2023-04-01T10:37:18.707Z,0.0000
2023-04-01T10:38:27.986Z,0.0000
2023-04-01T10:39:34.819Z,0.0000
2023-04-01T10:40:42.811Z,0.0000
2023-04-01T10:41:50.899Z,0.0000
2023-04-01T10:42:58.947Z,0.0000
2023-04-01T10:44:07.071Z,0.0000
2023-04-01T10:45:15.167Z,0.0000
2023-04-01T10:46:23.282Z,0.0000
2023-04-01T10:47:31.367Z,0.0000
2023-04-01T10:48:39.470Z,0.0000
2023-04-01T10:49:47.472Z,0.0000
2023-04-01T10:50:55.505Z,0.0000
2023-04-01T10:52:03.655Z,0.0000
2023-04-01T10:53:11.769Z,0.0000
2023-04-01T10:54:19.818Z,0.0000
2023-04-01T10:55:27.786Z,0.0000
2023-04-01T10:56:35.827Z,0.0000
2023-04-01T10:57:43.872Z,0.0000
2023-04-01T10:58:52.008Z,0.0000
2023-04-01T11:00:00.230Z,0.0000
2023-04-01T11:01:08.228Z,0.0000
2023-04-01T11:02:16.417Z,0.0000
2023-04-01T11:03:24.504Z,0.0000
2023-04-01T11:04:32.430Z,0.0000
2023-04-01T11:05:40.490Z,0.0000
2023-04-01T11:06:48.523Z,0.0000
2023-04-01T11:08:05.415Z,0.0000
2023-04-01T11:09:09.422Z,0.0000
2023-04-01T11:10:17.534Z,0.0000
2023-04-01T11:11:25.609Z,0.0000
2023-04-01T11:12:33.629Z,0.0000
2023-04-01T11:13:41.856Z,0.0000
2023-04-01T11:14:49.848Z,0.0000
2023-04-01T11:15:58.049Z,0.0000
2023-04-01T11:17:05.996Z,0.0000
2023-04-01T11:18:14.121Z,0.0000
2023-04-01T11:19:22.130Z,0.0000
2023-04-01T11:20:30.243Z,0.0000
2023-04-01T11:21:38.333Z,0.0000
2023-04-01T11:22:46.365Z,0.0000
2023-04-01T11:24:04.614Z,0.0000
2023-04-01T11:25:07.245Z,0.0000
2023-04-01T11:26:15.301Z,0.0000
2023-04-01T11:27:23.429Z,0.0000
2023-04-01T11:28:31.465Z,0.0000
2023-04-01T11:29:44.396Z,0.0000
2023-04-01T11:30:52.531Z,0.0000
2023-04-01T11:32:00.600Z,0.0000
2023-04-01T11:33:08.749Z,0.0000
2023-04-01T11:34:16.792Z,0.0000
2023-04-01T11:35:24.784Z,0.0000
2023-04-01T11:36:32.858Z,0.0000
2023-04-01T11:37:40.975Z,0.0000
2023-04-01T11:38:48.913Z,0.0000
2023-04-01T11:39:58.242Z,0.0000
2023-04-01T11:41:05.022Z,0.0000
2023-04-01T11:42:13.106Z,0.0000
2023-04-01T11:43:32.331Z,0.0000
2023-04-01T11:44:34.255Z,0.0000
2023-04-01T11:45:42.278Z,0.0000
2023-04-01T11:46:50.409Z,0.0000
2023-04-01T11:47:58.434Z,0.0000
2023-04-01T11:49:06.501Z,0.0000
2023-04-01T11:50:14.542Z,0.0000
2023-04-01T11:51:22.684Z,0.0000
2023-04-01T11:52:30.536Z,0.0000
2023-04-01T11:53:38.635Z,0.0000
2023-04-01T11:54:46.691Z,0.0000
2023-04-01T11:55:54.822Z,0.0000
2023-04-01T11:57:03.074Z,0.0000
2023-04-01T11:58:11.048Z,0.0000
2023-04-01T11:59:19.095Z,0.0000
2023-04-01T12:00:27.120Z,0.0000
2023-04-01T12:01:35.281Z,0.0000
2023-04-01T12:02:43.348Z,0.0000
2023-04-01T12:03:51.574Z,0.0000
2023-04-01T12:04:59.560Z,0.0000
2023-04-01T12:06:07.402Z,0.0000
2023-04-01T12:07:15.441Z,0.0000
2023-04-01T12:08:23.611Z,0.0000
2023-04-01T12:09:31.605Z,0.0000
2023-04-01T12:10:39.759Z,0.0000
2023-04-01T12:11:47.811Z,0.0000
2023-04-01T12:13:01.360Z,0.0000
2023-04-01T12:14:08.869Z,0.0000
2023-04-01T12:15:16.944Z,0.0000
2023-04-01T12:16:24.990Z,0.0000
2023-04-01T12:17:33.085Z,0.0000
2023-04-01T12:18:41.081Z,0.0000
2023-04-01T12:19:49.118Z,0.0000
2023-04-01T12:20:57.176Z,0.0000
2023-04-01T12:22:05.190Z,0.0000
2023-04-01T12:23:13.288Z,0.0000
2023-04-01T12:24:21.579Z,0.0000
2023-04-01T12:25:29.544Z,0.0000
2023-04-01T12:26:37.584Z,0.0000
2023-04-01T12:27:45.634Z,0.0000
2023-04-01T12:28:53.667Z,0.0000
2023-04-01T12:30:01.797Z,0.0000
2023-04-01T12:31:09.917Z,0.0000
2023-04-01T12:32:18.050Z,0.0000
2023-04-01T12:33:25.916Z,0.0000
2023-04-01T12:34:33.910Z,0.0000
2023-04-01T12:35:41.997Z,0.0000
2023-04-01T12:36:51.321Z,0.0000
2023-04-01T12:37:58.150Z,0.0000
2023-04-01T12:39:06.251Z,0.0000
2023-04-01T12:40:14.327Z,0.0000
2023-04-01T12:41:22.412Z,0.0000
2023-04-01T12:42:30.562Z,0.0000
2023-04-01T12:43:38.681Z,0.0000
2023-04-01T12:44:46.618Z,0.0000
2023-04-01T12:45:54.693Z,0.0000
2023-04-01T12:47:02.789Z,0.0000
2023-04-01T12:48:10.868Z,0.0000
2023-04-01T12:49:18.849Z,0.0000
2023-04-01T12:50:26.844Z,0.0000
2023-04-01T12:51:34.913Z,0.0000
2023-04-01T12:52:42.984Z,0.0000
2023-04-01T12:53:51.195Z,0.0000
2023-04-01T12:55:00.792Z,0.0000
2023-04-01T12:56:12.235Z,0.0000
2023-04-01T12:57:20.272Z,0.0000
2023-04-01T12:58:28.334Z,0.0000
2023-04-01T12:59:36.407Z,0.0000
2023-04-01T13:00:45.188Z,0.0000
2023-04-01T13:01:52.512Z,0.0000
2023-04-01T13:03:00.478Z,0.0000
2023-04-01T13:04:08.574Z,0.0000
2023-04-01T13:05:16.671Z,0.0000
2023-04-01T13:06:24.793Z,0.0000
2023-04-01T13:07:32.898Z,0.0000
2023-04-01T13:08:40.879Z,0.0000
2023-04-01T13:09:51.993Z,0.0000
2023-04-01T13:11:01.907Z,0.0000
2023-04-01T13:12:10.006Z,0.0000
2023-04-01T13:13:18.072Z,0.0000
2023-04-01T13:14:31.892Z,0.0000
2023-04-01T13:15:38.927Z,0.0000
2023-04-01T13:16:46.999Z,0.0000
2023-04-01T13:17:55.310Z,0.0000
2023-04-01T13:19:03.292Z,0.0000
2023-04-01T13:20:11.270Z,0.0000
2023-04-01T13:21:19.340Z,0.0000
2023-04-01T13:22:27.419Z,0.0000
2023-04-01T13:23:35.397Z,0.0000
2023-04-01T13:24:43.436Z,0.0000
2023-04-01T13:25:59.252Z,0.0000
2023-04-01T13:27:04.498Z,0.0000
2023-04-01T13:28:12.602Z,0.0000
2023-04-01T13:29:20.736Z,0.0000
2023-04-01T13:30:28.650Z,0.0000
2023-04-01T13:31:36.686Z,0.0000
2023-04-01T13:32:44.809Z,0.0000
2023-04-01T13:33:52.819Z,0.0000
2023-04-01T13:35:00.955Z,0.0000
2023-04-01T13:36:09.092Z,0.0000
2023-04-01T13:37:17.176Z,0.0000
2023-04-01T13:38:25.177Z,0.0000
2023-04-01T13:39:33.245Z,0.0000
2023-04-01T13:40:46.840Z,0.0000
2023-04-01T13:41:54.370Z,0.0000
2023-04-01T13:43:02.362Z,0.0000
2023-04-01T13:44:10.364Z,0.0000
2023-04-01T13:45:18.306Z,0.0000
2023-04-01T13:46:26.458Z,0.0000
2023-04-01T13:47:34.514Z,0.0000
2023-04-01T13:48:42.530Z,0.0000
2023-04-01T13:49:50.652Z,0.0000